createdAt,value
2018-07-25T00:01:36.123Z,1.00
2018-07-25T00:04:04.164Z,1.00
2018-07-25T00:06:32.183Z,1.00
2018-07-25T00:09:00.211Z,1.00
2018-07-25T00:11:28.234Z,1.00
2018-07-25T00:13:56.258Z,1.00
2018-07-25T00:16:24.282Z,1.00
2018-07-25T00:18:52.346Z,1.00
2018-07-25T00:21:20.397Z,1.00
2018-07-25T00:23:48.421Z,1.00
2018-07-25T00:26:16.429Z,1.00
2018-07-25T00:28:44.447Z,1.00
2018-07-25T00:31:12.491Z,1.00
2018-07-25T00:33:40.507Z,1.00
2018-07-25T00:36:08.539Z,1.00
2018-07-25T00:41:04.452Z,1.00
2018-07-25T00:43:32.470Z,1.00
2018-07-25T00:46:00.511Z,1.00
2018-07-25T00:48:28.526Z,1.00
2018-07-25T00:50:56.570Z,1.00
2018-07-25T00:53:24.618Z,1.00
2018-07-25T00:55:52.645Z,1.00
2018-07-25T00:58:20.673Z,1.00
2018-07-25T01:00:48.730Z,1.00
2018-07-25T01:03:16.779Z,1.00
2018-07-25T01:05:44.790Z,1.00
2018-07-25T01:08:12.835Z,1.00
2018-07-25T01:10:42.626Z,1.00
2018-07-25T01:13:11.618Z,1.00
2018-07-25T01:15:39.659Z,1.00
2018-07-25T01:18:07.756Z,1.00
2018-07-25T01:20:35.814Z,1.00
2018-07-25T01:23:03.879Z,1.00
2018-07-25T01:25:31.934Z,1.00
2018-07-25T01:27:59.980Z,1.00
2018-07-25T01:30:28.006Z,1.00
2018-07-25T01:32:56.068Z,1.00
2018-07-25T01:35:24.081Z,1.00
2018-07-25T01:37:52.126Z,1.00
2018-07-25T01:40:20.167Z,1.00
2018-07-25T01:42:48.212Z,1.00
2018-07-25T01:45:16.236Z,1.00
2018-07-25T01:47:44.271Z,1.00
2018-07-25T01:50:12.294Z,1.00
2018-07-25T01:52:40.334Z,1.00
2018-07-25T01:55:08.910Z,1.00
2018-07-25T01:57:36.954Z,1.00
2018-07-25T02:00:05.018Z,1.00
2018-07-25T02:02:33.070Z,1.00
2018-07-25T02:05:01.086Z,1.00
2018-07-25T02:07:29.164Z,1.00
2018-07-25T02:09:57.195Z,1.00
2018-07-25T02:12:25.227Z,1.00
2018-07-25T02:14:53.251Z,1.00
2018-07-25T02:17:21.286Z,1.00
2018-07-25T02:19:49.373Z,1.00
2018-07-25T02:22:17.410Z,1.00
2018-07-25T02:24:45.586Z,1.00
2018-07-25T02:27:13.651Z,1.00
2018-07-25T02:29:41.670Z,1.00
2018-07-25T02:32:09.699Z,1.00
2018-07-25T02:34:37.743Z,1.00
2018-07-25T02:37:05.786Z,1.00
2018-07-25T02:39:33.828Z,1.00
2018-07-25T05:05:05.219Z,99.90
2018-07-25T05:07:33.255Z,99.90
2018-07-25T05:10:01.312Z,99.90
2018-07-25T05:12:29.411Z,99.90
2018-07-25T05:14:58.190Z,11.20
2018-07-25T05:17:26.227Z,1.00
2018-07-25T05:19:54.259Z,99.90
2018-07-25T05:22:22.277Z,99.90
2018-07-25T05:27:18.152Z,99.90
2018-07-25T05:29:46.175Z,6.10
2018-07-25T05:32:14.267Z,44.00
2018-07-25T05:34:42.322Z,1.00
2018-07-25T05:37:10.338Z,1.00
2018-07-25T05:39:38.367Z,1.00
2018-07-25T05:42:06.464Z,1.00
2018-07-25T05:44:36.378Z,1.00
2018-07-25T05:47:04.406Z,1.00
2018-07-25T05:49:32.519Z,1.00
2018-07-25T05:52:00.478Z,1.00
2018-07-25T05:54:28.518Z,1.00
2018-07-25T05:56:56.547Z,1.00
2018-07-25T05:59:24.599Z,1.00
2018-07-25T06:01:52.617Z,1.00
2018-07-25T06:04:20.657Z,1.00
2018-07-25T06:06:48.678Z,99.90
2018-07-25T06:09:16.706Z,99.90
2018-07-25T06:11:44.724Z,99.90
2018-07-25T06:14:12.772Z,99.90
2018-07-25T06:16:40.906Z,99.90
2018-07-25T06:19:08.941Z,99.90
2018-07-25T06:21:36.981Z,99.90
2018-07-25T06:24:05.040Z,99.90
2018-07-25T06:26:33.082Z,97.20
2018-07-25T06:29:01.110Z,28.10
2018-07-25T06:31:29.247Z,37.70
2018-07-25T06:33:57.245Z,1.00
2018-07-25T06:36:25.275Z,1.00
2018-07-25T06:38:53.305Z,1.00
2018-07-25T06:41:21.338Z,99.90
2018-07-25T06:43:49.359Z,1.00
2018-07-25T06:46:17.448Z,99.90
2018-07-25T06:48:45.468Z,99.90
2018-07-25T06:51:13.514Z,99.90
2018-07-25T06:53:41.548Z,99.90
2018-07-25T06:56:09.579Z,99.90
2018-07-25T06:58:37.607Z,31.60
2018-07-25T07:01:05.660Z,1.00
2018-07-25T07:03:33.703Z,1.00
2018-07-25T07:06:01.756Z,1.00
2018-07-25T07:08:29.806Z,1.00
2018-07-25T07:10:57.835Z,1.00
2018-07-25T07:13:25.866Z,1.00
2018-07-25T07:15:53.884Z,1.00
2018-07-25T07:18:21.945Z,1.00
2018-07-25T07:20:49.974Z,1.00
2018-07-25T07:23:17.992Z,1.00
2018-07-25T07:25:46.054Z,1.00
2018-07-25T07:28:14.066Z,1.00
2018-07-25T07:30:42.168Z,1.00
2018-07-25T07:33:10.159Z,1.00
2018-07-25T07:35:38.345Z,1.00
2018-07-25T07:38:07.095Z,1.00
2018-07-25T07:40:35.128Z,1.00
2018-07-25T07:43:03.160Z,1.00
2018-07-25T07:45:31.194Z,1.00
2018-07-25T07:47:59.274Z,1.00
2018-07-25T07:50:27.307Z,1.00
2018-07-25T07:52:55.350Z,1.00
2018-07-25T07:55:23.382Z,1.00
2018-07-25T07:57:51.393Z,1.00
2018-07-25T08:00:19.415Z,1.00
2018-07-25T08:02:47.466Z,1.00
2018-07-25T08:05:15.482Z,1.00
2018-07-25T08:07:43.498Z,1.00
2018-07-25T08:10:11.523Z,1.00
2018-07-25T08:12:46.016Z,1.00
2018-07-25T08:15:14.015Z,99.90
2018-07-25T08:17:42.048Z,99.90
2018-07-25T08:20:10.060Z,1.00
2018-07-25T08:22:38.118Z,99.90
2018-07-25T08:25:06.146Z,1.00
2018-07-25T08:27:34.193Z,99.90
2018-07-25T08:30:02.238Z,99.90
2018-07-25T08:32:30.266Z,99.90
2018-07-25T08:34:58.292Z,99.90
2018-07-25T08:37:26.351Z,99.90
2018-07-25T08:39:54.374Z,99.90
2018-07-25T08:42:22.382Z,99.90
2018-07-25T08:44:50.438Z,99.90
2018-07-25T08:47:18.466Z,99.90
2018-07-25T08:49:46.506Z,99.90
2018-07-25T08:52:14.650Z,99.90
2018-07-25T08:54:42.691Z,99.90
2018-07-25T08:57:10.709Z,99.90
2018-07-25T08:59:38.738Z,99.90
2018-07-25T09:02:06.746Z,99.90
2018-07-25T09:04:34.759Z,99.90
2018-07-25T09:07:02.778Z,99.90
2018-07-25T09:09:30.818Z,99.90
2018-07-25T09:11:58.830Z,99.90
2018-07-25T09:14:26.872Z,99.90
2018-07-25T09:16:54.953Z,99.90
2018-07-25T09:19:22.934Z,99.90
2018-07-25T09:21:50.954Z,99.90
2018-07-25T09:24:18.966Z,99.90
2018-07-25T09:26:46.991Z,99.90
2018-07-25T09:29:15.010Z,99.90
2018-07-25T09:31:43.045Z,99.90
2018-07-25T09:34:11.186Z,99.90
2018-07-25T09:36:39.169Z,99.90
2018-07-25T09:39:09.063Z,99.90
2018-07-25T09:41:37.098Z,99.90
2018-07-25T09:44:05.114Z,99.90
2018-07-25T09:46:33.242Z,99.90
2018-07-25T09:49:01.166Z,99.90
2018-07-25T09:51:29.216Z,99.90
2018-07-25T09:53:57.234Z,99.90
2018-07-25T09:56:25.262Z,99.90
2018-07-25T09:58:53.335Z,99.90
2018-07-25T10:01:21.315Z,99.90
2018-07-25T10:03:49.351Z,99.90
2018-07-25T10:06:17.435Z,99.90
2018-07-25T10:08:45.478Z,99.90
2018-07-25T10:11:13.493Z,99.90
2018-07-25T10:13:41.531Z,99.90
2018-07-25T10:16:09.562Z,99.90
2018-07-25T10:18:37.575Z,99.90
2018-07-25T10:21:05.910Z,99.90
2018-07-25T10:23:33.968Z,99.90
2018-07-25T10:26:02.128Z,99.90
2018-07-25T10:28:30.324Z,99.90
2018-07-25T10:30:58.394Z,99.90
2018-07-25T10:33:26.441Z,99.90
2018-07-25T10:35:54.682Z,99.90
2018-07-25T10:38:22.683Z,99.90
2018-07-25T10:40:50.710Z,99.90
2018-07-25T10:43:18.750Z,99.90
2018-07-25T10:45:46.795Z,99.90
2018-07-25T10:48:14.826Z,99.90
2018-07-25T10:50:42.846Z,99.90
2018-07-25T10:53:10.883Z,99.90
2018-07-25T10:55:39.759Z,99.90
2018-07-25T10:58:07.904Z,99.90
2018-07-25T11:00:35.933Z,99.90
2018-07-25T11:03:04.014Z,99.90
2018-07-25T11:05:32.048Z,99.90
2018-07-25T11:08:00.138Z,99.90
2018-07-25T11:10:28.166Z,99.90
2018-07-25T11:12:56.202Z,99.90
2018-07-25T11:15:24.284Z,99.90
2018-07-25T11:17:52.355Z,99.90
2018-07-25T11:20:20.385Z,99.90
2018-07-25T11:22:48.411Z,99.90
2018-07-25T11:25:16.456Z,99.90
2018-07-25T11:27:44.482Z,99.90
2018-07-25T11:30:12.510Z,99.90
2018-07-25T11:32:40.611Z,99.90
2018-07-25T11:35:08.551Z,99.90
2018-07-25T11:37:36.579Z,99.90
2018-07-25T11:40:05.186Z,99.90
2018-07-25T11:42:33.207Z,99.90
2018-07-25T11:45:01.229Z,99.90
2018-07-25T11:47:29.277Z,99.90
2018-07-25T11:49:57.396Z,99.90
2018-07-25T11:52:25.340Z,99.90
2018-07-25T11:54:53.356Z,99.90
2018-07-25T11:57:21.422Z,99.90
2018-07-25T11:59:49.607Z,99.90
2018-07-25T12:02:17.763Z,99.90
2018-07-25T12:04:45.887Z,99.90
2018-07-25T12:07:13.979Z,99.90
2018-07-25T12:12:10.398Z,99.90
2018-07-25T12:14:38.503Z,99.90
2018-07-25T12:17:06.677Z,99.90
2018-07-25T12:19:34.734Z,99.90
2018-07-25T12:22:02.769Z,99.90
2018-07-25T12:24:30.990Z,99.90
2018-07-25T12:26:59.201Z,99.90
2018-07-25T12:29:27.166Z,99.90
2018-07-25T12:31:55.394Z,99.90
2018-07-25T12:36:51.712Z,99.90
2018-07-25T12:39:19.725Z,99.90
2018-07-25T12:41:47.867Z,99.90
2018-07-25T12:44:15.876Z,99.90
2018-07-25T12:46:43.890Z,99.90
2018-07-25T12:49:12.073Z,99.90
2018-07-25T12:51:40.279Z,99.90
2018-07-25T12:56:36.195Z,99.90
2018-07-25T12:59:04.365Z,99.90
2018-07-25T13:01:32.474Z,99.90
2018-07-25T13:04:00.852Z,99.90
2018-07-25T13:06:28.920Z,99.90
2018-07-25T13:08:56.963Z,99.90
2018-07-25T13:11:24.979Z,99.90
2018-07-25T13:13:53.005Z,99.90
2018-07-25T13:16:21.015Z,99.90
2018-07-25T13:18:49.115Z,99.90
2018-07-25T13:21:17.155Z,99.90
2018-07-25T13:23:45.215Z,99.90
2018-07-25T13:26:13.267Z,99.90
2018-07-25T13:31:09.234Z,99.90
2018-07-25T13:33:37.295Z,99.90
2018-07-25T13:36:05.499Z,99.90
2018-07-25T13:38:33.564Z,99.90
2018-07-25T13:41:01.881Z,99.90
2018-07-25T13:43:30.009Z,99.90
2018-07-25T13:45:58.133Z,99.90
2018-07-25T13:48:26.165Z,99.90
2018-07-25T13:50:54.405Z,99.90
2018-07-25T13:53:22.516Z,99.90
2018-07-25T13:55:51.620Z,99.90
2018-07-25T13:58:19.795Z,99.90
2018-07-25T14:03:15.894Z,99.90
2018-07-25T14:05:44.027Z,99.90
2018-07-25T14:10:40.207Z,99.90
2018-07-25T14:13:08.276Z,99.90
2018-07-25T14:18:04.398Z,99.90
2018-07-25T14:23:01.441Z,99.90
2018-07-25T14:25:29.725Z,99.90
2018-07-25T14:32:53.990Z,99.90
2018-07-25T14:35:22.147Z,99.90
2018-07-25T14:37:50.511Z,99.90
2018-07-25T14:40:18.673Z,99.90
2018-07-25T14:42:46.970Z,99.90
2018-07-25T14:45:15.096Z,99.90
2018-07-25T14:50:11.054Z,99.90
2018-07-25T14:52:39.070Z,99.90
2018-07-25T14:57:34.986Z,99.90
2018-07-25T15:00:03.021Z,99.90
2018-07-25T15:02:31.063Z,99.90
2018-07-25T15:04:59.075Z,99.90
2018-07-25T15:07:27.148Z,99.90
2018-07-25T15:12:28.585Z,99.90
2018-07-25T15:14:56.669Z,99.90
2018-07-25T15:17:24.710Z,99.90
2018-07-25T15:22:20.753Z,99.90
2018-07-25T15:24:48.800Z,99.90
2018-07-25T15:27:16.938Z,99.90
2018-07-25T15:29:44.994Z,99.90
2018-07-25T15:32:13.039Z,99.90
2018-07-25T15:34:41.081Z,99.90
2018-07-25T15:37:09.142Z,99.90
2018-07-25T15:39:37.328Z,99.90
2018-07-25T15:42:05.563Z,99.90
2018-07-25T15:44:34.598Z,99.90
2018-07-25T15:47:02.765Z,99.90
2018-07-25T15:49:31.898Z,99.90
2018-07-25T15:52:00.180Z,99.90
2018-07-25T15:54:28.227Z,99.90
2018-07-25T15:56:56.274Z,99.90
2018-07-25T15:59:24.549Z,99.90
2018-07-25T16:01:53.821Z,99.90
2018-07-25T16:09:17.707Z,99.90
2018-07-25T16:11:46.654Z,99.90
2018-07-25T16:14:14.832Z,99.90
2018-07-25T16:16:42.927Z,99.90
2018-07-25T16:19:10.966Z,99.90
2018-07-25T16:21:39.403Z,99.90
2018-07-25T16:24:08.504Z,99.90
2018-07-25T16:26:36.627Z,99.90
2018-07-25T16:29:05.274Z,99.90
2018-07-25T16:31:34.546Z,99.90
2018-07-25T16:34:02.727Z,99.90
2018-07-25T16:36:30.760Z,99.90
2018-07-25T16:38:58.919Z,99.90
2018-07-25T16:41:27.067Z,99.90
2018-07-25T16:43:55.360Z,99.90
2018-07-25T16:46:23.594Z,99.90
2018-07-25T16:48:51.692Z,99.90
2018-07-25T16:51:19.738Z,99.90
2018-07-25T16:56:15.722Z,99.90
2018-07-25T17:01:11.600Z,99.90
2018-07-25T17:06:07.536Z,99.90
2018-07-25T17:08:35.604Z,99.90
2018-07-25T17:11:04.031Z,99.90
2018-07-25T17:13:32.062Z,99.90
2018-07-25T17:16:00.135Z,99.90
2018-07-25T17:18:28.184Z,99.90
2018-07-25T17:20:56.230Z,99.90
2018-07-25T17:23:24.383Z,99.90
2018-07-25T17:25:53.331Z,99.90
2018-07-25T17:28:21.390Z,99.90
2018-07-25T17:30:49.913Z,99.90
2018-07-25T17:33:18.237Z,99.90
2018-07-25T17:35:46.286Z,99.90
2018-07-25T17:38:14.378Z,99.90
2018-07-25T17:40:42.966Z,99.90
2018-07-25T17:43:11.082Z,99.90
2018-07-25T17:45:39.187Z,99.90
2018-07-25T17:48:07.257Z,99.90
2018-07-25T17:50:35.274Z,99.90
2018-07-25T17:53:03.307Z,99.90
2018-07-25T17:55:31.641Z,99.90
2018-07-25T17:57:59.721Z,99.90
2018-07-25T18:00:27.856Z,99.90
2018-07-25T18:02:56.047Z,99.90
2018-07-25T18:05:24.236Z,99.90
2018-07-25T18:07:52.286Z,99.90
2018-07-25T18:10:21.574Z,99.90
2018-07-25T18:20:13.214Z,99.90
2018-07-25T18:22:41.418Z,99.90
2018-07-25T18:37:29.094Z,99.90
2018-07-25T18:39:57.215Z,99.90
2018-07-25T18:57:12.699Z,99.90
2018-07-25T19:17:01.788Z,99.90
2018-07-25T19:19:29.826Z,99.90
2018-07-25T19:24:25.878Z,99.90
2018-07-25T19:26:54.116Z,99.90
2018-07-25T19:36:45.889Z,1.00
2018-07-25T19:41:42.082Z,1.00
2018-07-25T19:44:10.165Z,1.00
2018-07-25T19:46:38.208Z,1.00
2018-07-25T19:51:34.115Z,1.00
2018-07-25T19:54:02.457Z,1.00
2018-07-25T20:06:22.002Z,99.90
2018-07-25T20:08:50.169Z,99.90
2018-07-25T20:18:47.534Z,34.00
2018-07-25T20:23:43.511Z,99.90
2018-07-25T20:26:11.606Z,99.90
2018-07-25T20:28:39.632Z,99.90
2018-07-25T20:31:07.663Z,1.00
2018-07-25T20:33:35.745Z,1.00
2018-07-25T21:35:16.791Z,1.00
2018-07-25T21:37:44.863Z,1.00
2018-07-25T21:40:13.011Z,99.90
2018-07-25T21:42:41.064Z,99.90
2018-07-25T21:45:09.146Z,99.90
2018-07-25T21:47:37.175Z,99.90
2018-07-25T21:50:05.223Z,99.90
2018-07-25T21:52:33.332Z,1.00
2018-07-25T21:55:01.488Z,99.90
2018-07-25T21:57:29.564Z,99.90
2018-07-25T21:59:57.638Z,1.00
2018-07-25T22:02:25.658Z,1.00
2018-07-25T22:09:49.542Z,29.60
2018-07-25T22:12:17.663Z,99.90
2018-07-25T22:17:13.527Z,99.90
2018-07-25T22:19:41.618Z,1.00
2018-07-25T22:24:37.524Z,1.00
2018-07-25T22:34:29.090Z,1.00
2018-07-25T22:36:57.157Z,25.10
2018-07-25T22:39:25.205Z,89.00
2018-07-25T22:41:53.219Z,47.10
2018-07-25T22:44:21.262Z,24.70
2018-07-25T22:46:49.322Z,6.70
2018-07-25T22:49:17.351Z,60.40
2018-07-25T22:51:45.399Z,1.00
2018-07-25T22:54:13.422Z,23.70
2018-07-25T22:56:41.450Z,45.80
2018-07-25T23:01:37.876Z,99.90
2018-07-25T23:04:06.037Z,99.90
2018-07-25T23:06:34.095Z,99.90
2018-07-25T23:11:29.995Z,99.90
2018-07-25T23:13:58.027Z,99.90
2018-07-25T23:16:26.055Z,99.90
2018-07-25T23:18:54.086Z,99.90
2018-07-25T23:23:49.958Z,99.90
2018-07-25T23:26:18.000Z,99.90
2018-07-25T23:28:46.043Z,99.90
2018-07-25T23:31:14.072Z,99.90
2018-07-25T23:33:42.114Z,99.90
2018-07-25T23:36:10.145Z,99.90
2018-07-25T23:38:38.166Z,99.90
2018-07-25T23:41:06.246Z,99.90
2018-07-25T23:46:02.171Z,99.90
2018-07-25T23:48:30.228Z,99.90
2018-07-25T23:50:58.310Z,99.90
2018-07-25T23:53:26.330Z,99.90
2018-07-25T23:55:54.373Z,99.90
2018-07-25T23:58:22.571Z,99.90
